Terminal Aerodrome Forecast
Issued by NWS Sterling, VA

Current Version | Previous Version | Graphics & Text | Print | Product List | Glossary On
Versions: 1 2 3 4 5 6 7 8 9 10 11 12 13 14 15 16 17 18 19 20 21 22 23
088
FTUS41 KLWX 162337
TAFMRB
TAF
KMRB 162337Z 1700/1724 VRB03KT P6SM OVC020
      TEMPO 1700/1702 OVC008
     FM170700 00000KT 4SM BR OVC015
     FM170900 00000KT 3SM BR OVC008
     FM171200 00000KT 1SM -SHRA BR OVC008
     FM171800 16005KT 6SM -SHRA OVC010
     FM172000 16007KT 6SM -SHRA BKN020
     FM172100 17007KT P6SM BKN030=

USA.gov is the U.S. government's official web portal to all federal, state and local government web resources and services.